sensor_id;sensor_type;location;lat;lon;timestamp;pressure;altitude;pressure_sealevel;temperature;humidity
71194;BME280;58903;47.210;8.618;2023-04-23T00:04:04;93740.28;;;26.92;40.28
71194;BME280;58903;47.210;8.618;2023-04-23T00:06:35;93745.25;;;26.93;40.10
71194;BME280;58903;47.210;8.618;2023-04-23T00:09:04;93747.28;;;26.92;40.42
71194;BME280;58903;47.210;8.618;2023-04-23T00:11:34;93744.00;;;26.94;40.20
71194;BME280;58903;47.210;8.618;2023-04-23T00:14:00;93743.78;;;26.92;40.13
71194;BME280;58903;47.210;8.618;2023-04-23T00:16:30;93742.50;;;26.93;40.11
71194;BME280;58903;47.210;8.618;2023-04-23T00:19:05;93742.50;;;26.93;40.31
71194;BME280;58903;47.210;8.618;2023-04-23T00:21:40;93730.00;;;26.92;40.03
71194;BME280;58903;47.210;8.618;2023-04-23T00:24:30;93734.44;;;26.95;40.12
71194;BME280;58903;47.210;8.618;2023-04-23T00:27:01;93737.72;;;26.94;40.52
71194;BME280;58903;47.210;8.618;2023-04-23T00:29:42;93737.72;;;26.94;40.34
71194;BME280;58903;47.210;8.618;2023-04-23T00:32:40;93732.22;;;26.94;40.04
71194;BME280;58903;47.210;8.618;2023-04-23T00:35:16;93740.28;;;26.92;39.73
71194;BME280;58903;47.210;8.618;2023-04-23T00:37:43;93742.50;;;26.93;40.19
71194;BME280;58903;47.210;8.618;2023-04-23T00:40:19;93740.28;;;26.92;39.74
71194;BME280;58903;47.210;8.618;2023-04-23T00:43:05;93741.97;;;26.95;40.05
71194;BME280;58903;47.210;8.618;2023-04-23T00:45:49;93738.69;;;26.96;39.82
71194;BME280;58903;47.210;8.618;2023-04-23T00:48:16;93743.25;;;26.94;39.95
71194;BME280;58903;47.210;8.618;2023-04-23T00:50:43;93744.19;;;26.96;40.01
71194;BME280;58903;47.210;8.618;2023-04-23T00:53:08;93737.19;;;26.95;40.63
71194;BME280;58903;47.210;8.618;2023-04-23T00:55:35;93748.03;;;26.93;40.08
71194;BME280;58903;47.210;8.618;2023-04-23T00:58:03;93744.75;;;26.95;40.01
71194;BME280;58903;47.210;8.618;2023-04-23T01:00:35;93752.28;;;26.94;40.07
71194;BME280;58903;47.210;8.618;2023-04-23T01:03:07;93754.28;;;26.94;39.94
71194;BME280;58903;47.210;8.618;2023-04-23T01:05:33;93759.25;;;26.95;40.30
71194;BME280;58903;47.210;8.618;2023-04-23T01:08:01;93758.84;;;26.91;39.99
71194;BME280;58903;47.210;8.618;2023-04-23T01:10:30;93752.78;;;26.92;40.36
71194;BME280;58903;47.210;8.618;2023-04-23T01:12:57;93757.59;;;26.92;40.69
71194;BME280;58903;47.210;8.618;2023-04-23T01:15:25;93752.59;;;26.90;40.13
71194;BME280;58903;47.210;8.618;2023-04-23T01:17:51;93750.38;;;26.89;40.27
71194;BME280;58903;47.210;8.618;2023-04-23T01:20:18;93763.09;;;26.92;40.38
71194;BME280;58903;47.210;8.618;2023-04-23T01:22:44;93770.44;;;26.89;40.17
71194;BME280;58903;47.210;8.618;2023-04-23T01:25:10;93773.00;;;26.87;40.45
71194;BME280;58903;47.210;8.618;2023-04-23T01:27:37;93768.22;;;26.88;40.36
71194;BME280;58903;47.210;8.618;2023-04-23T01:30:03;93771.91;;;26.90;40.25
71194;BME280;58903;47.210;8.618;2023-04-23T01:32:32;93773.00;;;26.87;40.24
71194;BME280;58903;47.210;8.618;2023-04-23T01:34:58;93774.78;;;26.85;40.32
71194;BME280;58903;47.210;8.618;2023-04-23T01:37:25;93785.28;;;26.86;40.41
71194;BME280;58903;47.210;8.618;2023-04-23T01:39:52;93784.03;;;26.87;40.29
71194;BME280;58903;47.210;8.618;2023-04-23T01:42:18;93785.63;;;26.83;39.77
71194;BME280;58903;47.210;8.618;2023-04-23T01:44:45;93779.16;;;26.80;40.06
71194;BME280;58903;47.210;8.618;2023-04-23T01:47:12;93783.19;;;26.79;40.26
71194;BME280;58903;47.210;8.618;2023-04-23T01:49:50;93786.88;;;26.82;40.70
71194;BME280;58903;47.210;8.618;2023-04-23T01:52:19;93787.63;;;26.82;40.48
71194;BME280;58903;47.210;8.618;2023-04-23T01:54:49;93791.34;;;26.85;40.40
71194;BME280;58903;47.210;8.618;2023-04-23T01:57:21;93797.63;;;26.85;40.09
71194;BME280;58903;47.210;8.618;2023-04-23T02:00:00;93796.44;;;26.81;40.17
71194;BME280;58903;47.210;8.618;2023-04-23T02:02:45;93785.41;;;26.81;40.48
71194;BME280;58903;47.210;8.618;2023-04-23T02:05:20;93791.13;;;26.83;40.64
71194;BME280;58903;47.210;8.618;2023-04-23T02:07:51;93782.44;;;26.79;40.42
71194;BME280;58903;47.210;8.618;2023-04-23T02:10:17;93788.38;;;26.83;40.92
71194;BME280;58903;47.210;8.618;2023-04-23T02:12:44;93788.38;;;26.83;40.08
71194;BME280;58903;47.210;8.618;2023-04-23T02:15:11;93781.16;;;26.80;40.25
71194;BME280;58903;47.210;8.618;2023-04-23T02:17:39;93786.88;;;26.82;40.58
71194;BME280;58903;47.210;8.618;2023-04-23T02:20:36;93793.69;;;26.81;40.27
71194;BME280;58903;47.210;8.618;2023-04-23T02:23:22;93781.16;;;26.80;40.08
71194;BME280;58903;47.210;8.618;2023-04-23T02:26:08;93786.88;;;26.82;40.58
71194;BME280;58903;47.210;8.618;2023-04-23T02:28:35;93790.94;;;26.81;40.34
71194;BME280;58903;47.210;8.618;2023-04-23T02:31:02;93791.13;;;26.83;40.14
71194;BME280;58903;47.210;8.618;2023-04-23T02:33:28;93784.13;;;26.82;40.79
71194;BME280;58903;47.210;8.618;2023-04-23T02:35:57;93785.63;;;26.83;40.45
71194;BME280;58903;47.210;8.618;2023-04-23T02:38:23;93789.13;;;26.83;40.30
71194;BME280;58903;47.210;8.618;2023-04-23T02:40:55;93784.13;;;26.82;40.07
71194;BME280;58903;47.210;8.618;2023-04-23T02:43:26;93783.91;;;26.80;40.02
71194;BME280;58903;47.210;8.618;2023-04-23T02:46:00;93776.59;;;26.82;40.22
71194;BME280;58903;47.210;8.618;2023-04-23T02:49:06;93778.41;;;26.80;40.04
71194;BME280;58903;47.210;8.618;2023-04-23T02:51:45;93784.66;;;26.80;40.19
71194;BME280;58903;47.210;8.618;2023-04-23T02:57:42;93782.44;;;26.79;40.87
71194;BME280;58903;47.210;8.618;2023-04-23T03:00:11;93774.69;;;26.77;40.36
71194;BME280;58903;47.210;8.618;2023-04-23T03:03:09;93780.94;;;26.78;40.70
71194;BME280;58903;47.210;8.618;2023-04-23T03:05:50;93779.50;;;26.77;40.45
71194;BME280;58903;47.210;8.618;2023-04-23T03:08:24;93774.69;;;26.77;40.11
71194;BME280;58903;47.210;8.618;2023-04-23T03:11:02;93771.22;;;26.77;40.42
71194;BME280;58903;47.210;8.618;2023-04-23T03:13:28;93767.69;;;26.76;40.10
71194;BME280;58903;47.210;8.618;2023-04-23T03:16:13;93771.00;;;26.75;40.43
71194;BME280;58903;47.210;8.618;2023-04-23T03:18:54;93772.47;;;26.76;40.47
71194;BME280;58903;47.210;8.618;2023-04-23T03:21:33;93769.16;;;26.77;40.53
71194;BME280;58903;47.210;8.618;2023-04-23T03:24:00;93758.69;;;26.76;40.39
71194;BME280;58903;47.210;8.618;2023-04-23T03:26:27;93765.69;;;26.77;40.84
71194;BME280;58903;47.210;8.618;2023-04-23T03:28:53;93770.47;;;26.76;40.39
71194;BME280;58903;47.210;8.618;2023-04-23T03:31:38;93764.19;;;26.76;40.31
71194;BME280;58903;47.210;8.618;2023-04-23T03:34:19;93756.66;;;26.76;40.62
71194;BME280;58903;47.210;8.618;2023-04-23T03:36:47;93759.97;;;26.75;40.46
71194;BME280;58903;47.210;8.618;2023-04-23T03:39:25;93750.94;;;26.74;40.38
71194;BME280;58903;47.210;8.618;2023-04-23T03:42:02;93753.69;;;26.74;40.39
71194;BME280;58903;47.210;8.618;2023-04-23T03:44:40;93752.94;;;26.74;40.17
71194;BME280;58903;47.210;8.618;2023-04-23T03:47:16;93755.16;;;26.75;40.31
71194;BME280;58903;47.210;8.618;2023-04-23T03:49:42;93755.72;;;26.74;40.61
71194;BME280;58903;47.210;8.618;2023-04-23T03:52:19;93766.19;;;26.75;40.78
71194;BME280;58903;47.210;8.618;2023-04-23T03:54:51;93765.47;;;26.75;40.32
71194;BME280;58903;47.210;8.618;2023-04-23T03:57:20;93767.50;;;26.74;40.36
71194;BME280;58903;47.210;8.618;2023-04-23T03:59:55;93767.50;;;26.74;40.13
71194;BME280;58903;47.210;8.618;2023-04-23T04:02:23;93762.25;;;26.71;40.53
71194;BME280;58903;47.210;8.618;2023-04-23T04:04:54;93757.72;;;26.73;40.59
71194;BME280;58903;47.210;8.618;2023-04-23T04:07:42;93759.97;;;26.75;40.37
71194;BME280;58903;47.210;8.618;2023-04-23T04:10:35;93745.41;;;26.74;40.13
71194;BME280;58903;47.210;8.618;2023-04-23T04:13:12;93751.69;;;26.75;40.59
71194;BME280;58903;47.210;8.618;2023-04-23T04:15:38;93744.69;;;26.74;40.91
71194;BME280;58903;47.210;8.618;2023-04-23T04:18:10;93749.97;;;26.72;40.94
71194;BME280;58903;47.210;8.618;2023-04-23T04:20:37;93753.97;;;26.71;40.96
71194;BME280;58903;47.210;8.618;2023-04-23T04:23:03;93751.47;;;26.73;40.34
71194;BME280;58903;47.210;8.618;2023-04-23T04:25:32;93743.22;;;26.73;40.95
71194;BME280;58903;47.210;8.618;2023-04-23T04:27:58;93737.69;;;26.73;40.25
71194;BME280;58903;47.210;8.618;2023-04-23T04:30:25;93730.22;;;26.68;40.79
71194;BME280;58903;47.210;8.618;2023-04-23T04:32:51;93747.44;;;26.74;40.23
71194;BME280;58903;47.210;8.618;2023-04-23T04:35:19;93741.16;;;26.73;40.31
71194;BME280;58903;47.210;8.618;2023-04-23T04:37:46;93741.69;;;26.72;40.45
71194;BME280;58903;47.210;8.618;2023-04-23T04:40:12;93743.41;;;26.75;40.63
71194;BME280;58903;47.210;8.618;2023-04-23T04:42:47;93737.69;;;26.73;41.07
71194;BME280;58903;47.210;8.618;2023-04-23T04:45:25;93739.66;;;26.72;40.06
71194;BME280;58903;47.210;8.618;2023-04-23T04:48:00;93740.19;;;26.71;40.39
71194;BME280;58903;47.210;8.618;2023-04-23T04:50:37;93740.44;;;26.73;40.65
71194;BME280;58903;47.210;8.618;2023-04-23T04:53:17;93732.16;;;26.73;40.24
71194;BME280;58903;47.210;8.618;2023-04-23T04:55:49;93736.91;;;26.72;40.78
71194;BME280;58903;47.210;8.618;2023-04-23T04:58:25;93733.41;;;26.72;40.70
71194;BME280;58903;47.210;8.618;2023-04-23T05:00:51;93734.66;;;26.71;40.50
71194;BME280;58903;47.210;8.618;2023-04-23T05:03:32;93736.91;;;26.72;40.96
71194;BME280;58903;47.210;8.618;2023-04-23T05:06:26;93742.94;;;26.71;40.92
71194;BME280;58903;47.210;8.618;2023-04-23T05:08:55;93741.47;;;26.70;40.54
71194;BME280;58903;47.210;8.618;2023-04-23T05:11:34;93735.22;;;26.69;40.80
71194;BME280;58903;47.210;8.618;2023-04-23T05:14:03;93731.69;;;26.69;40.19
71194;BME280;58903;47.210;8.618;2023-04-23T05:16:59;93735.97;;;26.70;40.78
71194;BME280;58903;47.210;8.618;2023-04-23T05:19:27;93734.47;;;26.69;40.58
71194;BME280;58903;47.210;8.618;2023-04-23T05:22:01;93737.22;;;26.69;40.89
71194;BME280;58903;47.210;8.618;2023-04-23T05:24:28;93737.97;;;26.69;40.96
71194;BME280;58903;47.210;8.618;2023-04-23T05:27:03;93742.22;;;26.70;41.01
71194;BME280;58903;47.210;8.618;2023-04-23T05:29:29;93746.25;;;26.69;40.95
71194;BME280;58903;47.210;8.618;2023-04-23T05:32:04;93747.19;;;26.72;40.34
71194;BME280;58903;47.210;8.618;2023-04-23T05:34:35;93747.00;;;26.70;40.89
71194;BME280;58903;47.210;8.618;2023-04-23T05:37:03;93739.97;;;26.69;40.80
71194;BME280;58903;47.210;8.618;2023-04-23T05:39:31;93750.50;;;26.70;41.19
71194;BME280;58903;47.210;8.618;2023-04-23T05:41:57;93743.22;;;26.73;40.75
71194;BME280;58903;47.210;8.618;2023-04-23T05:44:23;93748.47;;;26.71;41.34
71194;BME280;58903;47.210;8.618;2023-04-23T05:46:49;93747.00;;;26.70;41.29
71194;BME280;58903;47.210;8.618;2023-04-23T05:49:24;93745.50;;;26.69;40.80
71194;BME280;58903;47.210;8.618;2023-04-23T05:52:26;93748.25;;;26.69;40.80
71194;BME280;58903;47.210;8.618;2023-04-23T05:54:57;93744.03;;;26.68;40.45
71194;BME280;58903;47.210;8.618;2023-04-23T05:57:57;93744.78;;;26.68;40.72
71194;BME280;58903;47.210;8.618;2023-04-23T06:00:34;93747.84;;;26.65;40.45
71194;BME280;58903;47.210;8.618;2023-04-23T06:03:10;93746.78;;;26.68;40.97
71194;BME280;58903;47.210;8.618;2023-04-23T06:05:38;93753.56;;;26.67;46.51
71194;BME280;58903;47.210;8.618;2023-04-23T06:08:21;93747.53;;;26.68;44.50
71194;BME280;58903;47.210;8.618;2023-04-23T06:10:47;93753.97;;;26.71;43.30
71194;BME280;58903;47.210;8.618;2023-04-23T06:13:48;93746.25;;;26.69;42.15
71194;BME280;58903;47.210;8.618;2023-04-23T06:16:30;93739.47;;;26.70;41.68
71194;BME280;58903;47.210;8.618;2023-04-23T06:19:34;93751.56;;;26.67;41.92
71194;BME280;58903;47.210;8.618;2023-04-23T06:22:10;93743.06;;;26.65;41.59
71194;BME280;58903;47.210;8.618;2023-04-23T06:24:43;93745.63;;;26.63;41.63
71194;BME280;58903;47.210;8.618;2023-04-23T06:27:12;93741.81;;;26.66;41.59
71194;BME280;58903;47.210;8.618;2023-04-23T06:29:53;93739.56;;;26.65;42.03
71194;BME280;58903;47.210;8.618;2023-04-23T06:32:31;93739.34;;;26.63;42.16
71194;BME280;58903;47.210;8.618;2023-04-23T06:35:12;93738.09;;;26.64;41.84
71194;BME280;58903;47.210;8.618;2023-04-23T06:37:39;93735.34;;;26.64;41.81
71194;BME280;58903;47.210;8.618;2023-04-23T06:40:15;93735.53;;;26.66;41.93
71194;BME280;58903;47.210;8.618;2023-04-23T06:42:42;93729.28;;;26.65;41.91
71194;BME280;58903;47.210;8.618;2023-04-23T06:45:25;93723.22;;;26.67;41.30
71194;BME280;58903;47.210;8.618;2023-04-23T06:48:00;93729.47;;;26.67;42.75
71194;BME280;58903;47.210;8.618;2023-04-23T06:50:36;93720.66;;;26.69;42.23
71194;BME280;58903;47.210;8.618;2023-04-23T06:53:05;93712.41;;;26.69;41.04
71194;BME280;58903;47.210;8.618;2023-04-23T06:55:33;93715.34;;;26.71;43.22
71194;BME280;58903;47.210;8.618;2023-04-23T07:01:15;93702.84;;;26.70;41.49
71194;BME280;58903;47.210;8.618;2023-04-23T07:03:45;93691.81;;;26.70;43.03
71194;BME280;58903;47.210;8.618;2023-04-23T07:06:23;93694.03;;;26.71;42.05
71194;BME280;58903;47.210;8.618;2023-04-23T07:08:50;93686.31;;;26.70;42.60
71194;BME280;58903;47.210;8.618;2023-04-23T07:11:17;93689.25;;;26.72;42.88
71194;BME280;58903;47.210;8.618;2023-04-23T07:13:46;93676.72;;;26.71;42.30
71194;BME280;58903;47.210;8.618;2023-04-23T07:16:14;93676.44;;;26.74;42.66
71194;BME280;58903;47.210;8.618;2023-04-23T07:18:41;93680.16;;;26.77;42.35
71194;BME280;58903;47.210;8.618;2023-04-23T07:21:07;93673.56;;;26.80;41.76
71194;BME280;58903;47.210;8.618;2023-04-23T07:23:41;93669.34;;;26.79;41.96
71194;BME280;58903;47.210;8.618;2023-04-23T07:26:41;93663.06;;;26.78;42.23
71194;BME280;58903;47.210;8.618;2023-04-23T07:29:19;93660.31;;;26.78;42.64
71194;BME280;58903;47.210;8.618;2023-04-23T07:35:03;93657.69;;;26.73;42.20
71194;BME280;58903;47.210;8.618;2023-04-23T07:37:44;93657.69;;;26.73;42.21
71194;BME280;58903;47.210;8.618;2023-04-23T07:40:24;93655.97;;;26.70;42.54
71194;BME280;58903;47.210;8.618;2023-04-23T07:43:01;93652.44;;;26.69;41.99
71194;BME280;58903;47.210;8.618;2023-04-23T07:45:29;93651.69;;;26.69;41.77
71194;BME280;58903;47.210;8.618;2023-04-23T07:48:31;93647.69;;;26.70;42.35
71194;BME280;58903;47.210;8.618;2023-04-23T07:51:00;93651.69;;;26.69;42.29
71194;BME280;58903;47.210;8.618;2023-04-23T07:54:00;93647.69;;;26.70;42.66
71194;BME280;58903;47.210;8.618;2023-04-23T07:56:41;93650.66;;;26.72;43.23
71194;BME280;58903;47.210;8.618;2023-04-23T07:59:19;93645.13;;;26.72;42.66
71194;BME280;58903;47.210;8.618;2023-04-23T08:01:49;93634.09;;;26.72;42.73
71194;BME280;58903;47.210;8.618;2023-04-23T08:04:22;93635.91;;;26.69;41.97
71194;BME280;58903;47.210;8.618;2023-04-23T08:06:59;93636.84;;;26.72;42.62
71194;BME280;58903;47.210;8.618;2023-04-23T08:09:25;93621.28;;;26.74;42.42
71194;BME280;58903;47.210;8.618;2023-04-23T08:12:06;93617.53;;;26.72;42.72
71194;BME280;58903;47.210;8.618;2023-04-23T08:14:46;93620.72;;;26.76;42.33
71194;BME280;58903;47.210;8.618;2023-04-23T08:17:42;93621.69;;;26.78;42.42
71194;BME280;58903;47.210;8.618;2023-04-23T08:20:43;93612.44;;;26.76;43.03
71194;BME280;58903;47.210;8.618;2023-04-23T08:23:11;93612.44;;;26.76;42.48
71194;BME280;58903;47.210;8.618;2023-04-23T08:25:46;93603.97;;;26.74;43.06
71194;BME280;58903;47.210;8.618;2023-04-23T08:28:14;93605.66;;;26.77;43.37
71194;BME280;58903;47.210;8.618;2023-04-23T08:30:59;93607.13;;;26.78;42.98
71194;BME280;58903;47.210;8.618;2023-04-23T08:33:35;93605.13;;;26.78;42.19
71194;BME280;58903;47.210;8.618;2023-04-23T08:36:01;93601.41;;;26.76;42.57
71194;BME280;58903;47.210;8.618;2023-04-23T08:38:37;93613.94;;;26.77;42.90
71194;BME280;58903;47.210;8.618;2023-04-23T08:41:13;93606.38;;;26.77;42.58
71194;BME280;58903;47.210;8.618;2023-04-23T08:43:45;93606.63;;;26.79;42.50
71194;BME280;58903;47.210;8.618;2023-04-23T08:46:26;93607.34;;;26.80;42.65
71194;BME280;58903;47.210;8.618;2023-04-23T08:48:59;93598.84;;;26.78;42.89
71194;BME280;58903;47.210;8.618;2023-04-23T08:51:42;93604.59;;;26.80;42.61
71194;BME280;58903;47.210;8.618;2023-04-23T08:54:25;93601.09;;;26.79;42.40
71194;BME280;58903;47.210;8.618;2023-04-23T08:56:55;93604.78;;;26.82;42.50
71194;BME280;58903;47.210;8.618;2023-04-23T08:59:58;93606.47;;;26.85;42.90
71194;BME280;58903;47.210;8.618;2023-04-23T09:02:28;93609.22;;;26.85;42.77
71194;BME280;58903;47.210;8.618;2023-04-23T09:05:08;93605.22;;;26.86;43.07
71194;BME280;58903;47.210;8.618;2023-04-23T09:07:47;93603.16;;;26.86;42.60
71194;BME280;58903;47.210;8.618;2023-04-23T09:10:14;93601.50;;;26.83;42.58
71194;BME280;58903;47.210;8.618;2023-04-23T09:12:51;93602.44;;;26.86;42.84
71194;BME280;58903;47.210;8.618;2023-04-23T09:15:20;93605.41;;;26.88;43.04
71194;BME280;58903;47.210;8.618;2023-04-23T09:17:46;93603.38;;;26.88;42.49
71194;BME280;58903;47.210;8.618;2023-04-23T09:20:39;93597.84;;;26.88;42.77
71194;BME280;58903;47.210;8.618;2023-04-23T09:23:13;93597.13;;;26.88;42.57
71194;BME280;58903;47.210;8.618;2023-04-23T09:26:00;93596.59;;;26.89;43.03
71194;BME280;58903;47.210;8.618;2023-04-23T09:28:41;93598.06;;;26.90;42.34
71194;BME280;58903;47.210;8.618;2023-04-23T09:31:45;93597.72;;;26.94;42.70
71194;BME280;58903;47.210;8.618;2023-04-23T09:34:50;93590.91;;;26.95;42.66
71194;BME280;58903;47.210;8.618;2023-04-23T09:37:31;93592.41;;;26.96;42.27
71194;BME280;58903;47.210;8.618;2023-04-23T09:40:01;93587.63;;;26.97;42.42
71194;BME280;58903;47.210;8.618;2023-04-23T09:42:40;93575.84;;;26.96;42.22
71194;BME280;58903;47.210;8.618;2023-04-23T09:45:22;93558.56;;;26.96;42.49
71194;BME280;58903;47.210;8.618;2023-04-23T09:48:09;93563.72;;;26.99;42.44
71194;BME280;58903;47.210;8.618;2023-04-23T09:50:37;93557.47;;;26.99;42.70
71194;BME280;58903;47.210;8.618;2023-04-23T09:53:09;93552.47;;;26.97;42.41
71194;BME280;58903;47.210;8.618;2023-04-23T09:56:10;93552.69;;;26.99;42.42
71194;BME280;58903;47.210;8.618;2023-04-23T09:58:45;93545.91;;;27.00;42.21
71194;BME280;58903;47.210;8.618;2023-04-23T10:01:30;93549.41;;;27.01;42.52
71194;BME280;58903;47.210;8.618;2023-04-23T10:04:11;93536.13;;;26.99;42.20
71194;BME280;58903;47.210;8.618;2023-04-23T10:06:39;93543.34;;;27.02;42.48
71194;BME280;58903;47.210;8.618;2023-04-23T10:09:07;93539.31;;;27.03;42.32
71194;BME280;58903;47.210;8.618;2023-04-23T10:11:33;93539.31;;;27.03;42.06
71194;BME280;58903;47.210;8.618;2023-04-23T10:14:04;93543.53;;;27.04;41.90
71194;BME280;58903;47.210;8.618;2023-04-23T10:16:57;93536.00;;;27.05;42.06
71194;BME280;58903;47.210;8.618;2023-04-23T10:19:32;93536.75;;;27.05;41.73
71194;BME280;58903;47.210;8.618;2023-04-23T10:22:04;93533.97;;;27.05;42.68
71194;BME280;58903;47.210;8.618;2023-04-23T10:24:45;93532.50;;;27.04;42.10
71194;BME280;58903;47.210;8.618;2023-04-23T10:27:14;93527.72;;;27.05;42.30
71194;BME280;58903;47.210;8.618;2023-04-23T10:29:45;93527.72;;;27.05;42.12
71194;BME280;58903;47.210;8.618;2023-04-23T10:32:14;93517.41;;;27.05;41.97
71194;BME280;58903;47.210;8.618;2023-04-23T10:34:43;93515.38;;;27.06;41.73
71194;BME280;58903;47.210;8.618;2023-04-23T10:37:10;93510.59;;;27.06;42.04
71194;BME280;58903;47.210;8.618;2023-04-23T10:39:42;93506.91;;;27.04;42.49
71194;BME280;58903;47.210;8.618;2023-04-23T10:42:12;93507.44;;;27.02;41.93
71194;BME280;58903;47.210;8.618;2023-04-23T10:44:41;93503.44;;;27.03;41.87
71194;BME280;58903;47.210;8.618;2023-04-23T10:47:15;93499.91;;;27.03;41.85
71194;BME280;58903;47.210;8.618;2023-04-23T10:49:43;93503.63;;;27.05;42.21
71194;BME280;58903;47.210;8.618;2023-04-23T10:52:14;93489.81;;;27.05;41.85
71194;BME280;58903;47.210;8.618;2023-04-23T10:54:46;93493.84;;;27.04;41.71
71194;BME280;58903;47.210;8.618;2023-04-23T10:57:15;93493.31;;;27.06;41.48
71194;BME280;58903;47.210;8.618;2023-04-23T10:59:54;93499.75;;;27.08;41.97
71194;BME280;58903;47.210;8.618;2023-04-23T11:02:23;93502.00;;;27.10;41.48
71194;BME280;58903;47.210;8.618;2023-04-23T11:04:57;93482.81;;;27.04;41.57
71194;BME280;58903;47.210;8.618;2023-04-23T11:07:32;93490.97;;;27.10;41.74
71194;BME280;58903;47.210;8.618;2023-04-23T11:09:59;93490.22;;;27.09;41.74
71194;BME280;58903;47.210;8.618;2023-04-23T11:12:39;93486.91;;;27.11;41.72
71194;BME280;58903;47.210;8.618;2023-04-23T11:15:15;93488.91;;;27.10;41.18
71194;BME280;58903;47.210;8.618;2023-04-23T11:20:12;93479.16;;;27.09;41.90
71194;BME280;58903;47.210;8.618;2023-04-23T11:23:05;93484.88;;;27.11;41.47
71194;BME280;58903;47.210;8.618;2023-04-23T11:25:34;93484.88;;;27.11;41.58
71194;BME280;58903;47.210;8.618;2023-04-23T11:28:09;93476.81;;;27.13;41.78
71194;BME280;58903;47.210;8.618;2023-04-23T11:30:39;93481.56;;;27.13;41.29
71194;BME280;58903;47.210;8.618;2023-04-23T11:33:12;93475.53;;;27.14;41.55
71194;BME280;58903;47.210;8.618;2023-04-23T11:35:39;93467.44;;;27.16;41.46
71194;BME280;58903;47.210;8.618;2023-04-23T11:38:13;93463.38;;;27.17;40.97
71194;BME280;58903;47.210;8.618;2023-04-23T11:40:45;93462.84;;;27.19;41.82
71194;BME280;58903;47.210;8.618;2023-04-23T11:43:17;93462.84;;;27.19;41.14
71194;BME280;58903;47.210;8.618;2023-04-23T11:45:45;93466.34;;;27.19;41.71
71194;BME280;58903;47.210;8.618;2023-04-23T11:48:11;93467.09;;;27.20;41.17
71194;BME280;58903;47.210;8.618;2023-04-23T11:50:40;93456.78;;;27.20;41.38
71194;BME280;58903;47.210;8.618;2023-04-23T11:53:10;93459.00;;;27.22;41.31
71194;BME280;58903;47.210;8.618;2023-04-23T11:55:36;93450.16;;;27.23;40.87
71194;BME280;58903;47.210;8.618;2023-04-23T11:58:06;93443.91;;;27.23;40.96
71194;BME280;58903;47.210;8.618;2023-04-23T12:00:34;93445.38;;;27.24;41.29
71194;BME280;58903;47.210;8.618;2023-04-23T12:03:02;93453.13;;;27.25;41.30
71194;BME280;58903;47.210;8.618;2023-04-23T12:05:42;93431.78;;;27.26;41.60
71194;BME280;58903;47.210;8.618;2023-04-23T12:08:16;93436.56;;;27.25;41.20
71194;BME280;58903;47.210;8.618;2023-04-23T12:10:59;93434.53;;;27.26;41.62
71194;BME280;58903;47.210;8.618;2023-04-23T12:13:32;93439.31;;;27.25;41.15
71194;BME280;58903;47.210;8.618;2023-04-23T12:16:00;93435.28;;;27.26;41.36
71194;BME280;58903;47.210;8.618;2023-04-23T12:21:11;93427.75;;;27.27;41.23
71194;BME280;58903;47.210;8.618;2023-04-23T12:23:41;93421.47;;;27.26;41.45
71194;BME280;58903;47.210;8.618;2023-04-23T12:26:13;93422.41;;;27.29;41.37
71194;BME280;58903;47.210;8.618;2023-04-23T12:31:25;93408.78;;;27.31;41.22
71194;BME280;58903;47.210;8.618;2023-04-23T12:34:06;93404.22;;;27.33;41.70
71194;BME280;58903;47.210;8.618;2023-04-23T12:36:35;93399.44;;;27.34;41.48
71194;BME280;58903;47.210;8.618;2023-04-23T12:39:22;93392.09;;;27.36;41.41
71194;BME280;58903;47.210;8.618;2023-04-23T12:41:53;93395.78;;;27.39;41.39
71194;BME280;58903;47.210;8.618;2023-04-23T12:44:20;93391.00;;;27.39;40.98
71194;BME280;58903;47.210;8.618;2023-04-23T12:47:01;93389.00;;;27.40;41.43
71194;BME280;58903;47.210;8.618;2023-04-23T12:49:44;93386.75;;;27.38;41.16
71194;BME280;58903;47.210;8.618;2023-04-23T12:52:19;93395.03;;;27.38;41.28
71194;BME280;58903;47.210;8.618;2023-04-23T12:54:54;93393.41;;;27.43;41.89
71194;BME280;58903;47.210;8.618;2023-04-23T12:57:23;93397.66;;;27.44;41.09
71194;BME280;58903;47.210;8.618;2023-04-23T12:59:55;93392.88;;;27.44;41.02
71194;BME280;58903;47.210;8.618;2023-04-23T13:02:31;93393.22;;;27.41;41.12
71194;BME280;58903;47.210;8.618;2023-04-23T13:05:07;93380.53;;;27.45;40.85
71194;BME280;58903;47.210;8.618;2023-04-23T13:07:39;93386.41;;;27.42;41.24
71194;BME280;58903;47.210;8.618;2023-04-23T13:10:22;93388.81;;;27.45;41.12
71194;BME280;58903;47.210;8.618;2023-04-23T13:12:48;93390.81;;;27.45;41.13
71194;BME280;58903;47.210;8.618;2023-04-23T13:15:15;93391.19;;;27.41;40.91
71194;BME280;58903;47.210;8.618;2023-04-23T13:17:52;93400.56;;;27.38;40.84
71194;BME280;58903;47.210;8.618;2023-04-23T13:20:22;93391.38;;;27.36;41.12
71194;BME280;58903;47.210;8.618;2023-04-23T13:22:51;93392.41;;;27.33;41.00
71194;BME280;58903;47.210;8.618;2023-04-23T13:25:28;93390.41;;;27.33;41.10
71194;BME280;58903;47.210;8.618;2023-04-23T13:28:01;93375.66;;;27.31;40.98
71194;BME280;58903;47.210;8.618;2023-04-23T13:30:41;93368.66;;;27.30;40.74
71194;BME280;58903;47.210;8.618;2023-04-23T13:33:11;93359.25;;;27.25;41.05
71194;BME280;58903;47.210;8.618;2023-04-23T13:35:37;93366.44;;;27.28;40.65
71194;BME280;58903;47.210;8.618;2023-04-23T13:38:10;93370.16;;;27.31;41.04
71194;BME280;58903;47.210;8.618;2023-04-23T13:40:36;93357.09;;;27.31;40.81
71194;BME280;58903;47.210;8.618;2023-04-23T13:43:09;93354.31;;;27.31;40.94
71194;BME280;58903;47.210;8.618;2023-04-23T13:46:03;93354.50;;;27.33;41.05
71194;BME280;58903;47.210;8.618;2023-04-23T13:48:41;93343.28;;;27.31;40.70
71194;BME280;58903;47.210;8.618;2023-04-23T13:51:38;93346.97;;;27.34;41.38
71194;BME280;58903;47.210;8.618;2023-04-23T13:54:23;93332.94;;;27.32;40.90
71194;BME280;58903;47.210;8.618;2023-04-23T13:57:18;93332.22;;;27.31;40.98
71194;BME280;58903;47.210;8.618;2023-04-23T13:59:53;93330.94;;;27.32;41.10